Portada
METAR-TAF:

METAR-TAF

Aeroports :

Aeroport Internacional Diori Hamani

Niamey, Níger

latitud: 13-29N, longitud: 002-10E, altitud: 223 m

Observació

L'informe es va fer fa 41 minuts, a les 12:00 UTC
Vent 4 kt del Sud
Temperatura 38°C
Humitat 7%
Pressió 1011 hPa
Visibilitat: 3400 m
Pols estès

METAR: DRRN 281200Z 17004KT 3400 DU NSC 38/M04 Q1011 NOSIG

Hora: 13:41 (12:41 UTC)

Pronòstic

L'informe es va fer fa 1 hora i 41 minuts, a les 11:00 UTC
Pronòstic vàlid del 28 a les 12 UTC al 29 a les 18 UTC
Vent 6 kt del Sud/Sud-Est
Visibilitat: 4000 m
Pols estès
Probabilitat 40%
l' 28 a les 17 UTC al 28 a les 22 UTC
Visibilitat: 2800 m
Probabilitat 40% :
Temporalment
l' 29 a les 08 UTC al 29 a les 12 UTC
Vent 16 kt del Sud/Sud-Est
Visibilitat: 2500 m
torb alta de pols

TAF: DRRN 281100Z 2812/2918 16006KT 4000 DU NSC PROB40 2817/2822 2800 PROB40 TEMPO 2908/2912 16016KT 2500 BLDU

Observacions i pronòstics meteorològics de més de 4000 aeroports (METAR i TAF).

Les estacions disponibles són els punts grocs i vermells al mapa.

Posi el ratolí al punt desitjat per veure el nom de l'estació.

Feu clic per veure les observacions i els pronòstics meteorològics.

Per canviar el mapa: feu clic els botons verds amb una creu de color negre per apropar; al botó verd amb un guió per allunyar la imatge; o en les fletxes verdes per a mapes adjacents.


METAR-TAF: